Todos
Yarram Airport (Yarram, Victoria) YYRM Condições meteorológicas
|
Yarram, Victoria (YYRM)
Céu Limpo
Vento Ligeiro |
|
19 °C |
There is no TAF data available at YYRM. Showing TAF data for YLTV (29 mi NO).
TGN Previsão da área de terminais (sem dados para YYRM)
| Here is the undecoded forecast: 2026/05/03 01:22 YLTV 030122Z 0302/0314 05010KT 9999 -SHRA NSC FM030900 26008KT 9999 -SHRA BKN030 INTER 0303/0310 6000 RA BKN020 PROB30 INTER 0303/0311 VRB15G30KT 4000 TSRA SCT040 FEW070CB RMK T 20 20 17 16 Q 1011 1010 1011 1012 |
Histórico recente de METAR YYRM
| Date | Time (AEST) | Flight Rules | Wind Dir. | Speed | Type | Height AGL (ft) | Visibility | Temp (°C) | Temp (°F) | Dew Point (°C) | Dew Point (°F) | Rel. Humid. | Pressure | Density Altitude | Remarks |
|---|---|---|---|---|---|---|---|---|---|---|---|---|---|---|---|
| 03-Mai | 15:00 | n/a | 60° | 5 kt | Missing | 19° | 66° | 19° | 66° | 100% | 1011 mb | 607 ft | |||
| 03-Mai | 14:00 | n/a | 350° | 9 kt | Missing | 19° | 66° | 18° | 64° | 94% | 1011 mb | 607 ft | |||
| 03-Mai | 13:00 | n/a | 320° | 7 kt | Missing | 19° | 66° | 16° | 60° | 83% | 1011 mb | 607 ft | |||
| 03-Mai | 12:00 | n/a | 50° | 5 kt | Missing | 20° | 68° | 14° | 57° | 68% | 1011 mb | 727 ft | |||
| 03-Mai | 11:00 | n/a | 30° | 6 kt | Missing | 20° | 68° | 14° | 57° | 68% | 1012 mb | 698 ft | |||
| 03-Mai | 10:00 | n/a | 10° | 9 kt | Missing | 21° | 69° | 14° | 57° | 64% | 1012 mb | 818 ft | |||
| 03-Mai | 09:00 | n/a | 70° | 6 kt | Missing | 18° | 64° | 13° | 55° | 73% | 1013 mb | 428 ft | |||
| 03-Mai | 08:00 | n/a | 80° | 4 kt | Missing | 18° | 64° | 12° | 53° | 68% | 1013 mb | 428 ft | |||
| 03-Mai | 07:00 | n/a | 30° | 7 kt | Missing | 18° | 64° | 12° | 53° | 68% | 1013 mb | 428 ft | |||
| 03-Mai | 06:00 | n/a | 30° | 7 kt | Missing | 18° | 64° | 12° | 53° | 68% | 1013 mb | 428 ft | |||
| 03-Mai | 05:00 | n/a | 20° | 5 kt | Missing | 17° | 62° | 11° | 51° | 68% | 1013 mb | 308 ft | |||
| 03-Mai | 04:00 | n/a | 20° | 7 kt | Missing | 17° | 62° | 11° | 51° | 68% | 1013 mb | 308 ft | |||
| 03-Mai | 03:00 | n/a | 30° | 9 kt | Missing | 18° | 64° | 11° | 51° | 64% | 1014 mb | 399 ft | |||
| 03-Mai | 02:00 | n/a | 50° | 7 kt | Missing | 16° | 60° | 11° | 51° | 72% | 1014 mb | 159 ft | |||
| 03-Mai | 01:00 | n/a | 50° | 6 kt | Missing | 16° | 60° | 11° | 51° | 72% | 1015 mb | 129 ft | |||
| 03-Mai | 00:00 | n/a | 30° | 6 kt | Missing | 17° | 62° | 10° | 50° | 63% | 1015 mb | 249 ft | |||
| 02-Mai | 23:00 | n/a | 60° | 7 kt | Missing | 18° | 64° | 11° | 51° | 64% | 1015 mb | 369 ft | |||
| 02-Mai | 22:00 | n/a | 60° | 6 kt | Missing | 17° | 62° | 11° | 51° | 68% | 1016 mb | 220 ft | |||
| 02-Mai | 21:00 | n/a | 50° | 7 kt | Missing | 18° | 64° | 11° | 51° | 64% | 1016 mb | 340 ft | |||
| 02-Mai | 20:00 | n/a | 50° | 7 kt | Missing | 19° | 66° | 11° | 51° | 60% | 1016 mb | 460 ft | |||
| 02-Mai | 19:00 | n/a | 50° | 5 kt | Missing | 19° | 66° | 11° | 51° | 60% | 1017 mb | 430 ft | |||
| 02-Mai | 18:00 | n/a | 20° | 8 kt | Missing | 19° | 66° | 11° | 51° | 60% | 1016 mb | 460 ft | |||
| 02-Mai | 17:00 | n/a | 10° | 6 kt | Missing | 20° | 68° | 11° | 51° | 56% | 1016 mb | 580 ft | |||
| 02-Mai | 16:00 | n/a | 10° | 10 kt | Missing | 23° | 73° | 10° | 50° | 44% | 1016 mb | 940 ft |
Entrar
| Seu navegador não suporta. atualize seu navegador |
